TimeCDT,TemperatureF,Dew PointF,Humidity,Sea Level PressureIn,VisibilityMPH,Wind Direction,Wind SpeedMPH,Gust SpeedMPH,PrecipitationIn,Events,Conditions,WindDirDegrees,DateUTC
12:53 AM,75.0,53.1,46,29.99,10.0,SE,8.1,-,N/A,,Clear,140,2013-09-06 05:53:00
1:53 AM,73.9,52.0,46,29.99,10.0,SSE,5.8,-,N/A,,Clear,160,2013-09-06 06:53:00
2:53 AM,73.0,51.1,46,29.98,10.0,South,8.1,-,N/A,,Clear,180,2013-09-06 07:53:00
3:53 AM,71.1,50.0,47,29.97,10.0,SSE,6.9,-,N/A,,Clear,150,2013-09-06 08:53:00
4:53 AM,68.0,50.0,52,29.97,10.0,SE,3.5,-,N/A,,Clear,140,2013-09-06 09:53:00
5:53 AM,66.0,50.0,56,29.98,10.0,ESE,3.5,-,N/A,,Clear,110,2013-09-06 10:53:00
6:53 AM,63.0,50.0,63,29.97,10.0,ESE,3.5,-,N/A,,Clear,120,2013-09-06 11:53:00
7:53 AM,63.0,51.1,65,29.98,10.0,ESE,4.6,-,N/A,,Clear,110,2013-09-06 12:53:00
8:53 AM,70.0,48.9,47,29.99,7.0,South,3.5,-,N/A,,Clear,180,2013-09-06 13:53:00
9:53 AM,77.0,46.9,34,29.98,10.0,WSW,4.6,-,N/A,,Clear,250,2013-09-06 14:53:00
10:53 AM,86.0,46.9,26,29.96,10.0,Variable,4.6,-,N/A,,Clear,0,2013-09-06 15:53:00
11:53 AM,91.9,46.9,21,29.95,10.0,Calm,Calm,-,N/A,,Clear,0,2013-09-06 16:53:00
12:53 PM,100.0,46.9,16,29.91,10.0,SSW,6.9,-,N/A,,Clear,200,2013-09-06 17:53:00
1:53 PM,105.1,46.0,14,29.89,10.0,SSW,15.0,18.4,N/A,,Clear,200,2013-09-06 18:53:00
2:53 PM,106.0,45.0,13,29.87,10.0,SSW,10.4,19.6,N/A,,Clear,210,2013-09-06 19:53:00
3:53 PM,106.0,45.0,13,29.85,10.0,South,13.8,24.2,N/A,,Clear,180,2013-09-06 20:53:00
4:53 PM,105.1,45.0,13,29.83,10.0,SSW,11.5,-,N/A,,Clear,210,2013-09-06 21:53:00
5:53 PM,104.0,46.0,14,29.83,10.0,South,11.5,-,N/A,,Clear,190,2013-09-06 22:53:00
6:53 PM,100.0,44.1,15,29.83,10.0,South,13.8,-,N/A,,Clear,190,2013-09-06 23:53:00
7:53 PM,95.0,44.1,17,29.84,10.0,South,11.5,-,N/A,,Clear,170,2013-09-07 00:53:00
8:53 PM,90.0,45.0,21,29.85,10.0,South,12.7,-,N/A,,Clear,170,2013-09-07 01:53:00
9:53 PM,88.0,45.0,22,29.86,10.0,South,15.0,21.9,N/A,,Clear,180,2013-09-07 02:53:00
10:53 PM,84.9,46.0,26,29.86,10.0,South,11.5,-,N/A,,Clear,190,2013-09-07 03:53:00
11:53 PM,82.9,46.0,27,29.86,10.0,SSW,11.5,-,N/A,,Clear,200,2013-09-07 04:53:00